createdAt,value
2023-01-22T00:01:41.825Z,101460.91
2023-01-22T00:04:11.516Z,101455.75
2023-01-22T00:06:40.595Z,101471.97
2023-01-22T00:09:09.835Z,101477.66
2023-01-22T00:11:40.820Z,101465.78
2023-01-22T00:14:10.224Z,101467.13
2023-01-22T00:16:40.813Z,101462.81
2023-01-22T00:19:16.931Z,101470.63
2023-01-22T00:21:46.635Z,101474.81
2023-01-22T00:24:15.752Z,101473.94
2023-01-22T00:26:51.990Z,101457.88
2023-01-22T00:29:26.255Z,101463.47
2023-01-22T00:31:55.559Z,101457.22
2023-01-22T00:34:24.718Z,101463.81
2023-01-22T00:36:55.287Z,101464.69
2023-01-22T00:39:25.314Z,101462.59
2023-01-22T00:44:31.957Z,101445.75
2023-01-22T00:47:01.090Z,101454.81
2023-01-22T00:49:30.310Z,101456.56
2023-01-22T00:51:59.512Z,101464.25
2023-01-22T00:54:29.508Z,101457.66
2023-01-22T00:57:00.697Z,101449.31
2023-01-22T00:59:30.083Z,101428.16
2023-01-22T01:01:59.718Z,101451.19
2023-01-22T01:04:33.932Z,101453.03
2023-01-22T01:07:03.155Z,101452.50
2023-01-22T01:09:32.324Z,101461.97
2023-01-22T01:12:03.871Z,101456.03
2023-01-22T01:14:39.260Z,101460.06
2023-01-22T01:17:08.501Z,101452.38
2023-01-22T01:19:37.603Z,101461.72
2023-01-22T01:22:11.819Z,101457.22
2023-01-22T01:24:41.593Z,101465.13
2023-01-22T01:27:12.877Z,101469.53
2023-01-22T01:29:44.039Z,101454.16
2023-01-22T01:32:13.203Z,101474.81
2023-01-22T01:34:43.126Z,101447.53
2023-01-22T01:37:12.295Z,101471.53
2023-01-22T01:39:41.473Z,101468.00
2023-01-22T01:42:12.658Z,101466.59
2023-01-22T01:44:44.333Z,101466.38
2023-01-22T01:47:28.393Z,101462.81
2023-01-22T01:49:57.984Z,101473.94
2023-01-22T01:52:27.370Z,101466.47
2023-01-22T01:55:02.371Z,101471.97
2023-01-22T01:57:36.745Z,101476.28
2023-01-22T02:00:12.063Z,101475.91
2023-01-22T02:02:44.220Z,101482.09
2023-01-22T02:05:14.749Z,101483.84
2023-01-22T02:07:44.294Z,101481.31
2023-01-22T02:10:13.705Z,101460.06
2023-01-22T02:12:45.117Z,101481.53
2023-01-22T02:15:16.092Z,101482.84
2023-01-22T02:17:45.222Z,101472.28
2023-01-22T02:20:15.741Z,101484.50
2023-01-22T02:22:47.166Z,101482.97
2023-01-22T02:25:16.521Z,101481.44
2023-01-22T02:27:47.252Z,101482.97
2023-01-22T02:30:18.486Z,101478.78
2023-01-22T02:32:47.975Z,101485.38
2023-01-22T02:35:17.284Z,101487.16
2023-01-22T02:37:50.941Z,101489.34
2023-01-22T02:40:20.640Z,101478.13
2023-01-22T02:42:50.205Z,101491.44
2023-01-22T02:45:19.689Z,101481.44
2023-01-22T02:47:53.829Z,101488.34
2023-01-22T02:50:23.090Z,101490.22
2023-01-22T02:52:54.179Z,101493.06
2023-01-22T02:58:03.938Z,101488.44
2023-01-22T03:00:33.741Z,101474.81
2023-01-22T03:03:07.389Z,101491.44
2023-01-22T03:05:36.956Z,101495.94
2023-01-22T03:08:08.936Z,101498.56
2023-01-22T03:10:38.245Z,101495.72
2023-01-22T03:13:20.317Z,101501.31
2023-01-22T03:16:03.727Z,101496.81
2023-01-22T03:18:46.943Z,101497.06
2023-01-22T03:21:20.343Z,101503.09
2023-01-22T03:23:53.440Z,101508.59
2023-01-22T03:26:25.553Z,101507.94
2023-01-22T03:28:55.070Z,101495.16
2023-01-22T03:31:24.327Z,101516.28
2023-01-22T03:33:55.211Z,101509.59
2023-01-22T03:39:05.629Z,101509.16
2023-01-22T03:41:34.909Z,101512.00
2023-01-22T03:44:04.302Z,101494.19
2023-01-22T03:49:17.121Z,101516.16
2023-01-22T03:51:47.113Z,101513.84
2023-01-22T03:54:18.734Z,101480.72
2023-01-22T03:56:48.661Z,101515.19
2023-01-22T03:59:24.389Z,101509.47
2023-01-22T04:01:53.777Z,101514.31
2023-01-22T04:04:24.894Z,101520.69
2023-01-22T04:06:54.288Z,101522.78
2023-01-22T04:09:28.110Z,101526.06
2023-01-22T04:11:59.369Z,101520.91
2023-01-22T04:14:33.773Z,101526.28
2023-01-22T04:17:04.950Z,101528.28
2023-01-22T04:19:50.667Z,101529.41
2023-01-22T04:22:22.864Z,101537.75
2023-01-22T04:24:54.668Z,101537.75
2023-01-22T04:27:24.094Z,101537.97
2023-01-22T04:32:35.300Z,101529.63
2023-01-22T04:35:26.013Z,101544.38
2023-01-22T04:37:58.388Z,101534.91
2023-01-22T04:40:33.115Z,101526.06
2023-01-22T04:43:09.103Z,101533.56
2023-01-22T04:45:40.618Z,101533.34
2023-01-22T04:48:13.690Z,101533.78
2023-01-22T04:50:54.731Z,101533.44
2023-01-22T04:53:29.076Z,101520.69
2023-01-22T04:56:00.370Z,101526.56
2023-01-22T04:58:30.388Z,101543.03
2023-01-22T05:01:01.569Z,101536.31
2023-01-22T05:03:36.616Z,101525.00
2023-01-22T05:06:09.543Z,101532.25
2023-01-22T05:08:39.340Z,101524.03
2023-01-22T05:11:12.292Z,101546.34
2023-01-22T05:13:49.608Z,101488.66
2023-01-22T05:16:19.788Z,101549.34
2023-01-22T05:18:49.881Z,101555.16
2023-01-22T05:21:19.387Z,101563.06
2023-01-22T05:24:00.655Z,101560.75
2023-01-22T05:26:37.718Z,101562.41
2023-01-22T05:29:18.631Z,101576.50
2023-01-22T05:32:15.255Z,101556.44
2023-01-22T05:34:54.054Z,101580.03
2023-01-22T05:37:23.657Z,101566.13
2023-01-22T05:39:53.612Z,101578.91
2023-01-22T05:42:24.909Z,101586.75
2023-01-22T05:44:54.078Z,101583.13
2023-01-22T05:47:26.892Z,101591.25
2023-01-22T05:50:13.766Z,101606.31
2023-01-22T05:52:43.912Z,101595.22
2023-01-22T05:55:13.047Z,101602.38
2023-01-22T05:57:48.202Z,101610.28
2023-01-22T06:00:23.466Z,101607.66
2023-01-22T06:03:05.562Z,101602.28
2023-01-22T06:05:46.785Z,101610.75
2023-01-22T06:08:26.059Z,101606.31
2023-01-22T06:11:02.127Z,101617.47
2023-01-22T06:13:35.343Z,101615.03
2023-01-22T06:16:12.418Z,101566.88
2023-01-22T06:19:06.023Z,101624.81
2023-01-22T06:21:43.229Z,101628.25
2023-01-22T06:24:18.113Z,101631.56
2023-01-22T06:26:47.375Z,101638.81
2023-01-22T06:29:19.572Z,101643.56
2023-01-22T06:31:50.502Z,101644.53
2023-01-22T06:34:21.449Z,101646.97
2023-01-22T06:36:50.803Z,101648.63
2023-01-22T06:39:20.832Z,101648.63
2023-01-22T06:47:25.667Z,101639.38
2023-01-22T06:49:55.359Z,101667.06
2023-01-22T06:52:24.592Z,101669.69
2023-01-22T06:54:54.029Z,101679.63
2023-01-22T06:57:23.850Z,101667.91
2023-01-22T06:59:56.610Z,101677.50
2023-01-22T07:02:25.798Z,101670.13
2023-01-22T07:04:54.944Z,101670.56
2023-01-22T07:07:24.223Z,101688.94
2023-01-22T07:09:53.369Z,101691.94
2023-01-22T07:12:22.655Z,101691.25
2023-01-22T07:14:55.870Z,101694.91
2023-01-22T07:17:25.063Z,101696.56
2023-01-22T07:19:54.307Z,101706.13
2023-01-22T07:22:23.500Z,101714.41
2023-01-22T07:24:52.546Z,101693.03
2023-01-22T07:27:26.806Z,101714.16
2023-01-22T07:29:58.014Z,101717.50
2023-01-22T07:32:30.252Z,101714.06
2023-01-22T07:34:59.395Z,101720.16
2023-01-22T07:37:28.539Z,101722.78
2023-01-22T07:39:58.784Z,101726.28
2023-01-22T07:42:29.702Z,101731.03
2023-01-22T07:45:01.315Z,101686.66
2023-01-22T07:47:32.564Z,101748.44
2023-01-22T07:50:01.796Z,101752.19
2023-01-22T07:52:32.309Z,101751.38
2023-01-22T07:55:01.552Z,101756.22
2023-01-22T07:57:31.785Z,101763.06
2023-01-22T08:00:03.108Z,101765.47
2023-01-22T08:02:42.113Z,101759.94
2023-01-22T08:05:14.358Z,101767.00
2023-01-22T08:07:46.346Z,101763.69
2023-01-22T08:10:20.375Z,101767.94
2023-01-22T08:12:49.813Z,101760.25
2023-01-22T08:15:21.146Z,101771.84
2023-01-22T08:17:52.017Z,101776.00
2023-01-22T08:20:22.529Z,101777.69
2023-01-22T08:22:51.766Z,101767.03
2023-01-22T08:25:21.894Z,101783.59
2023-01-22T08:27:56.525Z,101776.97
2023-01-22T08:30:27.738Z,101779.84
2023-01-22T08:33:08.159Z,101782.13
2023-01-22T08:35:40.866Z,101778.94
2023-01-22T08:38:15.663Z,101781.47
2023-01-22T08:40:44.860Z,101785.09
2023-01-22T08:43:14.092Z,101787.69
2023-01-22T08:45:46.255Z,101787.91
2023-01-22T08:48:15.564Z,101792.53
2023-01-22T08:50:44.717Z,101795.56
2023-01-22T08:53:13.884Z,101796.22
2023-01-22T08:55:44.649Z,101791.75
2023-01-22T09:00:51.654Z,101802.63
2023-01-22T09:03:20.989Z,101807.50
2023-01-22T09:05:50.553Z,101807.59
2023-01-22T09:08:19.982Z,101797.72
2023-01-22T09:10:49.104Z,101803.69
2023-01-22T09:13:18.236Z,101807.19
2023-01-22T09:15:47.351Z,101797.16
2023-01-22T09:18:18.817Z,101809.78
2023-01-22T09:20:54.590Z,101803.38
2023-01-22T09:23:24.068Z,101819.78
2023-01-22T09:25:53.258Z,101817.34
2023-01-22T09:28:30.403Z,101815.50
2023-01-22T09:30:59.716Z,101819.69
2023-01-22T09:33:31.014Z,101817.31
2023-01-22T09:36:09.632Z,101832.75
2023-01-22T09:38:42.231Z,101833.81
2023-01-22T09:41:20.281Z,101832.56
2023-01-22T09:43:53.940Z,101831.47
2023-01-22T09:46:28.706Z,101828.72
2023-01-22T09:49:15.281Z,101834.13
2023-01-22T09:51:47.019Z,101821.31
2023-01-22T09:54:23.290Z,101835.59
2023-01-22T09:56:55.028Z,101838.19
2023-01-22T09:59:30.086Z,101828.03
2023-01-22T10:02:04.870Z,101829.19
2023-01-22T10:04:43.182Z,101817.66
2023-01-22T10:07:22.895Z,101818.31
2023-01-22T10:09:55.533Z,101825.44
2023-01-22T10:12:24.760Z,101824.53
2023-01-22T10:14:55.047Z,101826.91
2023-01-22T10:17:34.644Z,101818.47
2023-01-22T10:20:11.257Z,101826.03
2023-01-22T10:22:40.703Z,101826.81
2023-01-22T10:25:15.080Z,101832.66
2023-01-22T10:30:30.839Z,101834.06
2023-01-22T10:33:01.865Z,101842.47
2023-01-22T10:35:34.896Z,101846.66
2023-01-22T10:38:04.451Z,101835.00
2023-01-22T10:40:40.950Z,101837.06
2023-01-22T10:43:14.254Z,101825.72
2023-01-22T10:45:53.950Z,101825.03
2023-01-22T10:51:17.363Z,101832.03
2023-01-22T10:53:55.026Z,101832.56
2023-01-22T10:56:36.663Z,101827.88
2023-01-22T10:59:24.733Z,101824.88
2023-01-22T11:02:00.862Z,101839.56
2023-01-22T11:04:32.524Z,101840.56
2023-01-22T11:07:11.428Z,101828.56
2023-01-22T11:09:48.391Z,101821.56
2023-01-22T11:12:22.885Z,101832.94
2023-01-22T11:15:00.650Z,101836.41
2023-01-22T11:17:36.818Z,101838.28
2023-01-22T11:20:21.511Z,101837.31
2023-01-22T11:23:19.411Z,101837.78
2023-01-22T11:26:04.174Z,101818.88
2023-01-22T11:28:43.718Z,101839.69
2023-01-22T11:34:22.739Z,101837.63
2023-01-22T11:37:01.733Z,101818.34
2023-01-22T11:40:04.852Z,101841.66
2023-01-22T11:42:50.067Z,101842.34
2023-01-22T11:45:39.167Z,101825.88
2023-01-22T11:48:22.090Z,101775.69
2023-01-22T11:50:57.884Z,101852.31
2023-01-22T11:53:58.400Z,101848.69
2023-01-22T11:56:45.279Z,101789.44
2023-01-22T11:59:32.388Z,101844.13
2023-01-22T12:02:21.726Z,101842.59
2023-01-22T12:05:10.139Z,101846.81
2023-01-22T12:08:04.408Z,101840.84
2023-01-22T12:11:02.210Z,101847.78
2023-01-22T12:13:58.943Z,101841.94
2023-01-22T12:16:34.514Z,101819.22
2023-01-22T12:19:27.123Z,101850.38
2023-01-22T12:22:09.217Z,101842.66
2023-01-22T12:24:42.031Z,101852.06
2023-01-22T12:27:18.376Z,101848.59
2023-01-22T12:29:54.829Z,101853.00
2023-01-22T12:32:24.177Z,101856.53
2023-01-22T12:34:58.029Z,101837.47
2023-01-22T12:37:34.571Z,101855.34
2023-01-22T12:40:24.814Z,101848.63
2023-01-22T12:43:02.022Z,101856.91
2023-01-22T12:45:43.644Z,101861.13
2023-01-22T12:54:10.427Z,101846.47
2023-01-22T12:56:39.981Z,101850.09
2023-01-22T12:59:32.675Z,101865.00
2023-01-22T13:02:08.152Z,101865.34
2023-01-22T13:04:37.506Z,101867.97
2023-01-22T13:07:09.691Z,101865.78
2023-01-22T13:09:48.568Z,101870.75
2023-01-22T13:12:29.482Z,101868.97
2023-01-22T13:14:59.936Z,101876.47
2023-01-22T13:17:31.386Z,101875.72
2023-01-22T13:20:01.332Z,101878.13
2023-01-22T13:22:33.938Z,101876.25
2023-01-22T13:25:06.590Z,101874.38
2023-01-22T13:27:37.877Z,101873.28
2023-01-22T13:30:11.658Z,101873.84
2023-01-22T13:32:52.274Z,101878.91
2023-01-22T13:35:21.860Z,101862.78
2023-01-22T13:37:53.268Z,101884.66
2023-01-22T13:40:42.790Z,101874.94
2023-01-22T13:43:19.368Z,101892.91
2023-01-22T13:45:53.782Z,101887.41
2023-01-22T13:48:27.024Z,101893.50
2023-01-22T13:51:04.230Z,101895.03
2023-01-22T13:53:36.551Z,101903.88
2023-01-22T13:56:09.631Z,101895.25
2023-01-22T13:58:48.337Z,101908.81
2023-01-22T14:01:30.978Z,101908.25
2023-01-22T14:04:00.702Z,101902.97
2023-01-22T14:06:30.827Z,101899.22
2023-01-22T14:09:00.637Z,101895.00
2023-01-22T14:11:49.283Z,101907.47
2023-01-22T14:14:28.977Z,101895.84
2023-01-22T14:16:58.337Z,101912.44
2023-01-22T14:19:33.652Z,101921.34
2023-01-22T14:22:02.953Z,101903.59
2023-01-22T14:24:33.819Z,101913.00
2023-01-22T14:27:05.087Z,101895.88
2023-01-22T14:29:36.172Z,101903.88
2023-01-22T14:32:06.644Z,101919.09
2023-01-22T14:34:35.757Z,101910.69
2023-01-22T14:37:07.550Z,101906.72
2023-01-22T14:39:36.511Z,101917.53
2023-01-22T14:42:07.683Z,101921.63
2023-01-22T14:44:37.641Z,101924.72
2023-01-22T14:47:07.082Z,101919.31
2023-01-22T14:49:47.689Z,101917.63
2023-01-22T14:52:18.487Z,101906.94
2023-01-22T14:54:47.870Z,101926.91
2023-01-22T14:57:19.202Z,101936.16
2023-01-22T14:59:48.584Z,101899.84
2023-01-22T15:02:17.782Z,101936.03
2023-01-22T15:04:47.036Z,101937.81
2023-01-22T15:07:18.953Z,101942.88
2023-01-22T15:09:48.316Z,101938.91
2023-01-22T15:12:19.623Z,101932.31
2023-01-22T15:14:48.912Z,101934.16
2023-01-22T15:17:21.240Z,101934.13
2023-01-22T15:19:56.714Z,101931.81
2023-01-22T15:22:25.943Z,101938.91
2023-01-22T15:24:55.066Z,101938.91
2023-01-22T15:27:31.995Z,101939.47
2023-01-22T15:30:03.676Z,101928.75
2023-01-22T15:32:33.212Z,101931.56
2023-01-22T15:35:02.515Z,101921.25
2023-01-22T15:37:36.909Z,101919.41
2023-01-22T15:40:07.272Z,101935.38
2023-01-22T15:42:38.789Z,101913.72
2023-01-22T15:45:09.799Z,101942.22
2023-01-22T15:47:44.108Z,101943.31
2023-01-22T15:50:19.729Z,101948.28
2023-01-22T15:52:49.535Z,101942.66
2023-01-22T15:55:19.245Z,101932.31
2023-01-22T15:57:55.743Z,101929.84
2023-01-22T16:00:27.218Z,101953.34
2023-01-22T16:03:01.625Z,101955.34
2023-01-22T16:05:30.921Z,101945.97
2023-01-22T16:08:00.166Z,101949.75
2023-01-22T16:10:30.976Z,101952.28
2023-01-22T16:13:02.846Z,101941.09
2023-01-22T16:15:35.385Z,101940.97
2023-01-22T16:18:05.048Z,101934.34
2023-01-22T16:20:34.545Z,101951.47
2023-01-22T16:23:08.450Z,101943.09
2023-01-22T16:25:40.996Z,101957.88
2023-01-22T16:28:12.379Z,101931.16
2023-01-22T16:30:42.566Z,101962.06
2023-01-22T16:33:27.312Z,101954.91
2023-01-22T16:36:02.864Z,101969.53
2023-01-22T16:38:39.001Z,101963.78
2023-01-22T16:41:24.882Z,101953.41
2023-01-22T16:44:03.245Z,101958.28
2023-01-22T16:46:33.754Z,101968.47
2023-01-22T16:49:14.021Z,101952.56
2023-01-22T16:51:49.837Z,101954.94
2023-01-22T16:54:22.731Z,101976.56
2023-01-22T16:56:52.727Z,101977.34
2023-01-22T16:59:24.302Z,101975.69
2023-01-22T17:01:54.518Z,101970.25
2023-01-22T17:04:23.705Z,101965.53
2023-01-22T17:06:55.002Z,101980.47
2023-01-22T17:09:26.012Z,101979.22
2023-01-22T17:11:57.345Z,101977.81
2023-01-22T17:14:32.000Z,101984.31
2023-01-22T17:17:01.492Z,101947.69
2023-01-22T17:19:30.928Z,101975.03
2023-01-22T17:22:01.341Z,101952.47
2023-01-22T17:24:39.943Z,101977.94
2023-01-22T17:27:10.928Z,101974.72
2023-01-22T17:29:42.318Z,101989.31
2023-01-22T17:34:55.726Z,101995.63
2023-01-22T17:37:24.927Z,102005.00
2023-01-22T17:39:54.705Z,101984.78
2023-01-22T17:42:23.956Z,101991.09
2023-01-22T17:45:03.711Z,101968.59
2023-01-22T17:47:39.878Z,101997.09
2023-01-22T17:50:11.754Z,101989.03
2023-01-22T17:52:40.809Z,101993.38
2023-01-22T17:55:20.153Z,101989.03
2023-01-22T17:57:49.640Z,101996.00
2023-01-22T18:00:22.455Z,101930.72
2023-01-22T18:02:57.734Z,101990.38
2023-01-22T18:05:28.772Z,101974.06
2023-01-22T18:07:58.161Z,101993.97
2023-01-22T18:10:27.773Z,101994.06
2023-01-22T18:12:57.101Z,101995.69
2023-01-22T18:15:28.534Z,101998.16
2023-01-22T18:20:50.916Z,101981.63
2023-01-22T18:23:20.165Z,102003.75
2023-01-22T18:25:55.738Z,102004.72
2023-01-22T18:28:26.803Z,101996.09
2023-01-22T18:30:58.196Z,101996.25
2023-01-22T18:33:27.887Z,101995.00
2023-01-22T18:36:01.484Z,102017.53
2023-01-22T18:38:30.729Z,102001.31
2023-01-22T18:41:09.240Z,102005.41
2023-01-22T18:43:39.136Z,102006.31
2023-01-22T18:46:15.616Z,101999.53
2023-01-22T18:48:45.483Z,102012.03
2023-01-22T18:51:16.661Z,102018.22
2023-01-22T18:53:51.006Z,102015.16
2023-01-22T18:56:20.608Z,102016.91
2023-01-22T18:58:55.934Z,102029.91
2023-01-22T19:01:30.696Z,102015.09
2023-01-22T19:04:06.910Z,102014.44
2023-01-22T19:06:38.553Z,102028.34
2023-01-22T19:09:12.013Z,101994.59
2023-01-22T19:11:42.897Z,102028.53
2023-01-22T19:14:19.148Z,102024.13
2023-01-22T19:16:54.339Z,102018.25
2023-01-22T19:19:24.581Z,102013.63
2023-01-22T19:21:55.671Z,102028.03
2023-01-22T19:24:31.849Z,102008.38
2023-01-22T19:27:01.119Z,102036.44
2023-01-22T19:29:30.334Z,102039.63
2023-01-22T19:32:01.608Z,102036.13
2023-01-22T19:34:31.946Z,102002.53
2023-01-22T19:37:10.372Z,102032.50
2023-01-22T19:39:41.609Z,102050.19
2023-01-22T19:42:11.396Z,102052.81
2023-01-22T19:44:42.513Z,102055.03
2023-01-22T19:47:19.900Z,102060.56
2023-01-22T19:49:49.175Z,102040.03
2023-01-22T19:52:20.132Z,102059.50
2023-01-22T19:54:50.243Z,102044.28
2023-01-22T19:57:19.466Z,102050.47
2023-01-22T19:59:51.980Z,102050.81
2023-01-22T20:02:23.654Z,102058.91
2023-01-22T20:05:03.043Z,102063.31
2023-01-22T20:07:33.306Z,102044.97
2023-01-22T20:10:05.130Z,102052.91
2023-01-22T20:12:37.334Z,102059.13
2023-01-22T20:15:07.737Z,102026.84
2023-01-22T20:17:39.775Z,102058.63
2023-01-22T20:20:14.527Z,102064.91
2023-01-22T20:22:43.925Z,102059.97
2023-01-22T20:25:15.129Z,102061.06
2023-01-22T20:27:49.503Z,102066.50
2023-01-22T20:30:19.791Z,102061.97
2023-01-22T20:32:56.723Z,102060.91
2023-01-22T20:35:28.450Z,102061.00
2023-01-22T20:37:57.892Z,102041.66
2023-01-22T20:40:27.192Z,102057.78
2023-01-22T20:43:01.653Z,102022.94
2023-01-22T20:45:30.899Z,102066.25
2023-01-22T20:48:07.211Z,102065.38
2023-01-22T20:50:36.707Z,102061.97
2023-01-22T20:53:09.119Z,102035.91
2023-01-22T20:55:43.445Z,102065.09
2023-01-22T20:58:13.822Z,102063.31
2023-01-22T21:00:45.518Z,102060.72
2023-01-22T21:03:21.934Z,102066.66
2023-01-22T21:05:51.335Z,102066.25
2023-01-22T21:08:20.930Z,102073.97
2023-01-22T21:10:58.495Z,102077.72
2023-01-22T21:13:28.323Z,102069.97
2023-01-22T21:15:57.417Z,102082.09
2023-01-22T21:18:28.755Z,102051.13
2023-01-22T21:20:59.619Z,102064.88
2023-01-22T21:23:28.824Z,102082.84
2023-01-22T21:25:57.895Z,102078.38
2023-01-22T21:28:27.165Z,102078.97
2023-01-22T21:31:08.167Z,102082.78
2023-01-22T21:33:40.068Z,102037.53
2023-01-22T21:36:20.766Z,102074.94
2023-01-22T21:38:50.631Z,102083.13
2023-01-22T21:44:17.780Z,102065.31
2023-01-22T21:46:48.979Z,102085.25
2023-01-22T21:49:27.578Z,102088.31
2023-01-22T21:52:05.416Z,102087.06
2023-01-22T21:54:37.373Z,102084.91
2023-01-22T21:57:07.861Z,102080.94
2023-01-22T21:59:42.487Z,102094.81
2023-01-22T22:02:19.763Z,102085.03
2023-01-22T22:04:56.243Z,102087.91
2023-01-22T22:07:32.486Z,102083.38
2023-01-22T22:12:36.665Z,102085.91
2023-01-22T22:15:09.307Z,102087.34
2023-01-22T22:17:44.391Z,102090.13
2023-01-22T22:20:18.273Z,102104.75
2023-01-22T22:22:47.579Z,102103.13
2023-01-22T22:25:16.879Z,102065.72
2023-01-22T22:27:51.153Z,102113.91
2023-01-22T22:30:20.874Z,102107.75
2023-01-22T22:32:50.119Z,102119.28
2023-01-22T22:35:31.828Z,102111.94
2023-01-22T22:38:01.061Z,102102.03
2023-01-22T22:40:30.162Z,102104.69
2023-01-22T22:43:06.350Z,102108.75
2023-01-22T22:45:40.433Z,102107.59
2023-01-22T22:48:09.939Z,102112.84
2023-01-22T22:50:42.846Z,102110.94
2023-01-22T22:53:21.209Z,102107.50
2023-01-22T22:55:52.798Z,102103.69
2023-01-22T22:58:22.022Z,102114.97
2023-01-22T23:00:50.971Z,102092.63
2023-01-22T23:03:26.038Z,102109.50
2023-01-22T23:05:57.288Z,102109.91
2023-01-22T23:08:26.563Z,102109.91
2023-01-22T23:10:56.509Z,102084.50
2023-01-22T23:13:25.845Z,102105.00
2023-01-22T23:15:55.010Z,102100.69
2023-01-22T23:18:28.544Z,102101.19
2023-01-22T23:23:42.834Z,102102.72
2023-01-22T23:26:14.599Z,102103.50
2023-01-22T23:28:43.781Z,102116.91
2023-01-22T23:31:16.136Z,102109.56
2023-01-22T23:33:51.110Z,102113.34
2023-01-22T23:36:22.205Z,102099.63
2023-01-22T23:38:52.272Z,102122.38
2023-01-22T23:41:25.171Z,102118.69
2023-01-22T23:43:54.797Z,102123.38
2023-01-22T23:46:26.024Z,102116.16
2023-01-22T23:48:57.488Z,102127.25
2023-01-22T23:51:31.388Z,102115.72
2023-01-22T23:54:05.976Z,102125.03
2023-01-22T23:56:35.125Z,102131.88
2023-01-22T23:59:09.941Z,102116.44
